sensor_id;sensor_type;location;lat;lon;timestamp;P1;durP1;ratioP1;P2;durP2;ratioP2
25950;SDS011;13748;52.240;6.002;2023-06-22T00:00:29;9.43;;;6.65;;
25950;SDS011;13748;52.240;6.002;2023-06-22T00:03:22;8.35;;;6.75;;
25950;SDS011;13748;52.240;6.002;2023-06-22T00:05:52;7.28;;;5.63;;
25950;SDS011;13748;52.240;6.002;2023-06-22T00:08:21;8.43;;;6.45;;
25950;SDS011;13748;52.240;6.002;2023-06-22T00:10:57;9.55;;;6.18;;
25950;SDS011;13748;52.240;6.002;2023-06-22T00:13:24;9.70;;;6.95;;
25950;SDS011;13748;52.240;6.002;2023-06-22T00:15:51;9.95;;;6.82;;
25950;SDS011;13748;52.240;6.002;2023-06-22T00:18:18;7.85;;;6.38;;
25950;SDS011;13748;52.240;6.002;2023-06-22T00:21:04;8.40;;;6.30;;
25950;SDS011;13748;52.240;6.002;2023-06-22T00:23:36;8.10;;;6.40;;
25950;SDS011;13748;52.240;6.002;2023-06-22T00:26:07;8.57;;;6.60;;
25950;SDS011;13748;52.240;6.002;2023-06-22T00:28:34;8.73;;;6.28;;
25950;SDS011;13748;52.240;6.002;2023-06-22T00:31:04;8.48;;;6.45;;
25950;SDS011;13748;52.240;6.002;2023-06-22T00:33:37;7.95;;;6.30;;
25950;SDS011;13748;52.240;6.002;2023-06-22T00:36:12;6.28;;;5.35;;
25950;SDS011;13748;52.240;6.002;2023-06-22T00:38:45;7.38;;;6.18;;
25950;SDS011;13748;52.240;6.002;2023-06-22T00:41:12;8.13;;;6.05;;
25950;SDS011;13748;52.240;6.002;2023-06-22T00:43:39;8.60;;;6.03;;
25950;SDS011;13748;52.240;6.002;2023-06-22T00:46:11;9.73;;;6.65;;
25950;SDS011;13748;52.240;6.002;2023-06-22T00:48:38;10.98;;;6.70;;
25950;SDS011;13748;52.240;6.002;2023-06-22T00:51:06;10.77;;;6.53;;
25950;SDS011;13748;52.240;6.002;2023-06-22T00:53:33;9.18;;;6.70;;
25950;SDS011;13748;52.240;6.002;2023-06-22T00:56:01;11.15;;;7.78;;
25950;SDS011;13748;52.240;6.002;2023-06-22T00:58:30;11.57;;;7.43;;
25950;SDS011;13748;52.240;6.002;2023-06-22T01:00:58;9.98;;;6.97;;
25950;SDS011;13748;52.240;6.002;2023-06-22T01:03:26;9.75;;;7.03;;
25950;SDS011;13748;52.240;6.002;2023-06-22T01:05:58;9.15;;;6.78;;
25950;SDS011;13748;52.240;6.002;2023-06-22T01:13:48;7.97;;;6.20;;
25950;SDS011;13748;52.240;6.002;2023-06-22T01:16:29;9.88;;;7.10;;
25950;SDS011;13748;52.240;6.002;2023-06-22T01:21:55;10.83;;;6.87;;
25950;SDS011;13748;52.240;6.002;2023-06-22T01:24:37;11.55;;;7.32;;
25950;SDS011;13748;52.240;6.002;2023-06-22T01:27:21;11.43;;;7.73;;
25950;SDS011;13748;52.240;6.002;2023-06-22T01:29:55;10.80;;;7.60;;
25950;SDS011;13748;52.240;6.002;2023-06-22T01:32:30;8.68;;;6.70;;
25950;SDS011;13748;52.240;6.002;2023-06-22T01:35:04;10.80;;;7.13;;
25950;SDS011;13748;52.240;6.002;2023-06-22T01:37:34;11.57;;;7.05;;
25950;SDS011;13748;52.240;6.002;2023-06-22T01:40:03;11.40;;;7.53;;
25950;SDS011;13748;52.240;6.002;2023-06-22T01:42:33;10.80;;;7.40;;
25950;SDS011;13748;52.240;6.002;2023-06-22T01:45:01;11.15;;;7.07;;
25950;SDS011;13748;52.240;6.002;2023-06-22T01:47:28;9.48;;;6.35;;
25950;SDS011;13748;52.240;6.002;2023-06-22T01:49:56;9.57;;;6.40;;
25950;SDS011;13748;52.240;6.002;2023-06-22T01:52:23;10.83;;;7.87;;
25950;SDS011;13748;52.240;6.002;2023-06-22T01:54:50;12.23;;;7.43;;
25950;SDS011;13748;52.240;6.002;2023-06-22T01:57:17;10.30;;;7.03;;
25950;SDS011;13748;52.240;6.002;2023-06-22T02:02:13;12.70;;;7.53;;
25950;SDS011;13748;52.240;6.002;2023-06-22T02:04:48;12.17;;;7.93;;
25950;SDS011;13748;52.240;6.002;2023-06-22T02:07:21;11.90;;;7.72;;
25950;SDS011;13748;52.240;6.002;2023-06-22T02:09:50;12.20;;;8.27;;
25950;SDS011;13748;52.240;6.002;2023-06-22T02:12:21;11.27;;;7.47;;
25950;SDS011;13748;52.240;6.002;2023-06-22T02:14:49;12.33;;;8.50;;
25950;SDS011;13748;52.240;6.002;2023-06-22T02:17:18;13.90;;;8.83;;
25950;SDS011;13748;52.240;6.002;2023-06-22T02:19:45;12.80;;;8.70;;
25950;SDS011;13748;52.240;6.002;2023-06-22T02:22:13;11.17;;;7.73;;
25950;SDS011;13748;52.240;6.002;2023-06-22T02:24:43;12.13;;;8.00;;
25950;SDS011;13748;52.240;6.002;2023-06-22T02:27:12;11.77;;;8.00;;
25950;SDS011;13748;52.240;6.002;2023-06-22T02:29:39;12.50;;;8.23;;
25950;SDS011;13748;52.240;6.002;2023-06-22T02:32:13;13.37;;;8.37;;
25950;SDS011;13748;52.240;6.002;2023-06-22T02:35:16;12.07;;;7.83;;
25950;SDS011;13748;52.240;6.002;2023-06-22T02:37:43;12.47;;;7.90;;
25950;SDS011;13748;52.240;6.002;2023-06-22T02:40:17;13.47;;;7.63;;
25950;SDS011;13748;52.240;6.002;2023-06-22T02:42:44;12.60;;;8.00;;
25950;SDS011;13748;52.240;6.002;2023-06-22T02:45:13;11.97;;;7.73;;
25950;SDS011;13748;52.240;6.002;2023-06-22T02:47:41;12.63;;;8.53;;
25950;SDS011;13748;52.240;6.002;2023-06-22T02:50:27;13.87;;;8.37;;
25950;SDS011;13748;52.240;6.002;2023-06-22T02:53:00;13.47;;;8.90;;
25950;SDS011;13748;52.240;6.002;2023-06-22T02:55:33;15.43;;;10.10;;
25950;SDS011;13748;52.240;6.002;2023-06-22T02:58:01;13.57;;;9.00;;
25950;SDS011;13748;52.240;6.002;2023-06-22T03:00:33;14.50;;;9.00;;
25950;SDS011;13748;52.240;6.002;2023-06-22T03:03:00;15.83;;;10.23;;
25950;SDS011;13748;52.240;6.002;2023-06-22T03:05:28;14.10;;;9.20;;
25950;SDS011;13748;52.240;6.002;2023-06-22T03:07:58;15.30;;;9.13;;
25950;SDS011;13748;52.240;6.002;2023-06-22T03:10:25;14.37;;;9.40;;
25950;SDS011;13748;52.240;6.002;2023-06-22T03:12:57;15.23;;;9.97;;
25950;SDS011;13748;52.240;6.002;2023-06-22T03:15:36;14.77;;;10.00;;
25950;SDS011;13748;52.240;6.002;2023-06-22T03:18:14;17.20;;;9.93;;
25950;SDS011;13748;52.240;6.002;2023-06-22T03:20:43;17.80;;;9.57;;
25950;SDS011;13748;52.240;6.002;2023-06-22T03:23:24;12.70;;;9.33;;
25950;SDS011;13748;52.240;6.002;2023-06-22T03:26:01;18.20;;;10.40;;
25950;SDS011;13748;52.240;6.002;2023-06-22T03:28:37;15.40;;;10.57;;
25950;SDS011;13748;52.240;6.002;2023-06-22T03:31:07;18.37;;;10.80;;
25950;SDS011;13748;52.240;6.002;2023-06-22T03:33:35;16.17;;;10.73;;
25950;SDS011;13748;52.240;6.002;2023-06-22T03:36:08;18.93;;;11.63;;
25950;SDS011;13748;52.240;6.002;2023-06-22T03:38:38;16.57;;;10.53;;
25950;SDS011;13748;52.240;6.002;2023-06-22T03:41:08;19.23;;;12.03;;
25950;SDS011;13748;52.240;6.002;2023-06-22T03:43:53;18.20;;;10.57;;
25950;SDS011;13748;52.240;6.002;2023-06-22T03:46:44;19.17;;;11.47;;
25950;SDS011;13748;52.240;6.002;2023-06-22T03:49:11;18.03;;;11.30;;
25950;SDS011;13748;52.240;6.002;2023-06-22T03:51:38;21.37;;;12.57;;
25950;SDS011;13748;52.240;6.002;2023-06-22T03:54:05;20.73;;;12.13;;
25950;SDS011;13748;52.240;6.002;2023-06-22T03:56:36;20.10;;;13.10;;
25950;SDS011;13748;52.240;6.002;2023-06-22T03:59:04;21.63;;;13.67;;
25950;SDS011;13748;52.240;6.002;2023-06-22T04:01:34;22.77;;;14.17;;
25950;SDS011;13748;52.240;6.002;2023-06-22T04:04:06;23.13;;;13.93;;
25950;SDS011;13748;52.240;6.002;2023-06-22T04:06:36;23.93;;;14.00;;
25950;SDS011;13748;52.240;6.002;2023-06-22T04:09:25;23.80;;;14.77;;
25950;SDS011;13748;52.240;6.002;2023-06-22T04:12:38;21.37;;;13.13;;
25950;SDS011;13748;52.240;6.002;2023-06-22T04:15:06;22.53;;;13.50;;
25950;SDS011;13748;52.240;6.002;2023-06-22T04:17:38;23.67;;;14.97;;
25950;SDS011;13748;52.240;6.002;2023-06-22T04:20:12;27.07;;;15.33;;
25950;SDS011;13748;52.240;6.002;2023-06-22T04:22:49;24.90;;;15.73;;
25950;SDS011;13748;52.240;6.002;2023-06-22T04:25:17;26.30;;;16.03;;
25950;SDS011;13748;52.240;6.002;2023-06-22T04:27:48;30.53;;;16.73;;
25950;SDS011;13748;52.240;6.002;2023-06-22T04:30:19;32.40;;;18.10;;
25950;SDS011;13748;52.240;6.002;2023-06-22T04:32:46;31.10;;;18.13;;
25950;SDS011;13748;52.240;6.002;2023-06-22T04:35:29;33.80;;;18.92;;
25950;SDS011;13748;52.240;6.002;2023-06-22T04:38:05;32.23;;;18.63;;
25950;SDS011;13748;52.240;6.002;2023-06-22T04:40:42;31.23;;;18.97;;
25950;SDS011;13748;52.240;6.002;2023-06-22T04:43:41;31.90;;;18.70;;
25950;SDS011;13748;52.240;6.002;2023-06-22T04:46:24;31.15;;;19.25;;
25950;SDS011;13748;52.240;6.002;2023-06-22T04:49:07;35.60;;;19.85;;
25950;SDS011;13748;52.240;6.002;2023-06-22T04:58:16;38.00;;;22.13;;
25950;SDS011;13748;52.240;6.002;2023-06-22T05:00:55;40.78;;;23.23;;
25950;SDS011;13748;52.240;6.002;2023-06-22T05:03:29;37.13;;;21.90;;
25950;SDS011;13748;52.240;6.002;2023-06-22T05:06:09;41.28;;;22.50;;
25950;SDS011;13748;52.240;6.002;2023-06-22T05:09:03;43.38;;;24.38;;
25950;SDS011;13748;52.240;6.002;2023-06-22T05:11:52;47.83;;;26.92;;
25950;SDS011;13748;52.240;6.002;2023-06-22T05:14:50;40.58;;;23.73;;
25950;SDS011;13748;52.240;6.002;2023-06-22T05:17:19;46.17;;;26.63;;
25950;SDS011;13748;52.240;6.002;2023-06-22T05:22:56;42.92;;;25.10;;
25950;SDS011;13748;52.240;6.002;2023-06-22T05:29:20;38.67;;;23.92;;
25950;SDS011;13748;52.240;6.002;2023-06-22T05:32:28;36.72;;;25.40;;
25950;SDS011;13748;52.240;6.002;2023-06-22T05:35:48;36.63;;;23.17;;
25950;SDS011;13748;52.240;6.002;2023-06-22T05:38:30;39.95;;;26.05;;
25950;SDS011;13748;52.240;6.002;2023-06-22T05:48:12;39.35;;;22.63;;
25950;SDS011;13748;52.240;6.002;2023-06-22T05:55:34;32.22;;;22.77;;
25950;SDS011;13748;52.240;6.002;2023-06-22T06:01:29;35.05;;;23.77;;
25950;SDS011;13748;52.240;6.002;2023-06-22T06:07:24;27.73;;;20.30;;
25950;SDS011;13748;52.240;6.002;2023-06-22T06:10:05;34.67;;;23.55;;
25950;SDS011;13748;52.240;6.002;2023-06-22T06:32:30;22.95;;;16.73;;
25950;SDS011;13748;52.240;6.002;2023-06-22T06:38:48;20.08;;;15.82;;
25950;SDS011;13748;52.240;6.002;2023-06-22T06:52:09;16.35;;;13.75;;
25950;SDS011;13748;52.240;6.002;2023-06-22T06:59:16;18.42;;;13.55;;
25950;SDS011;13748;52.240;6.002;2023-06-22T07:01:59;17.63;;;12.27;;
25950;SDS011;13748;52.240;6.002;2023-06-22T07:08:57;16.48;;;12.95;;
25950;SDS011;13748;52.240;6.002;2023-06-22T07:11:36;15.40;;;12.82;;
25950;SDS011;13748;52.240;6.002;2023-06-22T07:25:07;12.93;;;10.63;;
25950;SDS011;13748;52.240;6.002;2023-06-22T07:28:07;12.68;;;10.40;;
25950;SDS011;13748;52.240;6.002;2023-06-22T07:31:28;11.15;;;9.38;;
25950;SDS011;13748;52.240;6.002;2023-06-22T07:35:10;12.60;;;10.13;;
25950;SDS011;13748;52.240;6.002;2023-06-22T07:37:55;13.05;;;10.32;;
25950;SDS011;13748;52.240;6.002;2023-06-22T07:40:45;12.30;;;9.65;;
25950;SDS011;13748;52.240;6.002;2023-06-22T07:43:25;11.88;;;9.27;;
25950;SDS011;13748;52.240;6.002;2023-06-22T07:46:23;11.07;;;9.32;;
25950;SDS011;13748;52.240;6.002;2023-06-22T07:49:01;11.20;;;8.90;;
25950;SDS011;13748;52.240;6.002;2023-06-22T07:51:29;10.82;;;8.10;;
25950;SDS011;13748;52.240;6.002;2023-06-22T07:54:03;9.77;;;8.52;;
25950;SDS011;13748;52.240;6.002;2023-06-22T07:56:43;12.30;;;9.65;;
25950;SDS011;13748;52.240;6.002;2023-06-22T07:59:46;11.80;;;9.52;;
25950;SDS011;13748;52.240;6.002;2023-06-22T08:02:16;10.07;;;8.65;;
25950;SDS011;13748;52.240;6.002;2023-06-22T08:04:56;10.50;;;7.93;;
25950;SDS011;13748;52.240;6.002;2023-06-22T08:07:46;11.25;;;8.52;;
25950;SDS011;13748;52.240;6.002;2023-06-22T08:10:14;10.23;;;7.72;;
25950;SDS011;13748;52.240;6.002;2023-06-22T08:12:43;12.05;;;8.05;;
25950;SDS011;13748;52.240;6.002;2023-06-22T08:15:26;10.63;;;8.90;;
25950;SDS011;13748;52.240;6.002;2023-06-22T08:17:56;12.25;;;8.65;;
25950;SDS011;13748;52.240;6.002;2023-06-22T08:20:24;10.52;;;8.43;;
25950;SDS011;13748;52.240;6.002;2023-06-22T08:22:52;9.35;;;7.35;;
25950;SDS011;13748;52.240;6.002;2023-06-22T08:25:36;11.82;;;8.40;;
25950;SDS011;13748;52.240;6.002;2023-06-22T08:28:05;10.45;;;8.13;;
25950;SDS011;13748;52.240;6.002;2023-06-22T08:30:33;9.15;;;7.72;;
25950;SDS011;13748;52.240;6.002;2023-06-22T08:33:00;8.95;;;8.02;;
25950;SDS011;13748;52.240;6.002;2023-06-22T08:35:30;11.95;;;8.27;;
25950;SDS011;13748;52.240;6.002;2023-06-22T08:38:04;11.15;;;8.40;;
25950;SDS011;13748;52.240;6.002;2023-06-22T08:40:31;10.30;;;7.80;;
25950;SDS011;13748;52.240;6.002;2023-06-22T08:43:00;7.90;;;6.88;;
25950;SDS011;13748;52.240;6.002;2023-06-22T08:45:27;10.38;;;7.15;;
25950;SDS011;13748;52.240;6.002;2023-06-22T08:47:56;10.55;;;7.28;;
25950;SDS011;13748;52.240;6.002;2023-06-22T08:50:27;9.13;;;6.80;;
25950;SDS011;13748;52.240;6.002;2023-06-22T08:52:56;12.02;;;7.78;;
25950;SDS011;13748;52.240;6.002;2023-06-22T08:55:27;9.68;;;6.85;;
25950;SDS011;13748;52.240;6.002;2023-06-22T08:57:54;9.48;;;7.45;;
25950;SDS011;13748;52.240;6.002;2023-06-22T09:00:21;8.73;;;6.75;;
25950;SDS011;13748;52.240;6.002;2023-06-22T09:02:48;9.63;;;7.50;;
25950;SDS011;13748;52.240;6.002;2023-06-22T09:05:15;10.30;;;7.15;;
25950;SDS011;13748;52.240;6.002;2023-06-22T09:07:42;10.07;;;7.28;;
25950;SDS011;13748;52.240;6.002;2023-06-22T09:10:11;7.78;;;6.22;;
25950;SDS011;13748;52.240;6.002;2023-06-22T09:12:39;8.73;;;6.95;;
25950;SDS011;13748;52.240;6.002;2023-06-22T09:15:08;8.95;;;7.05;;
25950;SDS011;13748;52.240;6.002;2023-06-22T09:17:41;8.07;;;6.93;;
25950;SDS011;13748;52.240;6.002;2023-06-22T09:20:08;7.60;;;6.63;;
25950;SDS011;13748;52.240;6.002;2023-06-22T09:22:37;11.45;;;7.03;;
25950;SDS011;13748;52.240;6.002;2023-06-22T09:25:06;10.43;;;7.25;;
25950;SDS011;13748;52.240;6.002;2023-06-22T09:27:34;9.18;;;6.15;;
25950;SDS011;13748;52.240;6.002;2023-06-22T09:30:01;9.60;;;6.63;;
25950;SDS011;13748;52.240;6.002;2023-06-22T09:32:29;8.20;;;6.15;;
25950;SDS011;13748;52.240;6.002;2023-06-22T09:34:57;7.63;;;6.22;;
25950;SDS011;13748;52.240;6.002;2023-06-22T09:37:24;9.57;;;7.55;;
25950;SDS011;13748;52.240;6.002;2023-06-22T09:39:53;8.98;;;6.57;;
25950;SDS011;13748;52.240;6.002;2023-06-22T09:42:20;8.88;;;7.28;;
25950;SDS011;13748;52.240;6.002;2023-06-22T09:44:47;8.65;;;6.85;;
25950;SDS011;13748;52.240;6.002;2023-06-22T09:47:14;9.05;;;6.40;;
25950;SDS011;13748;52.240;6.002;2023-06-22T09:49:41;7.80;;;6.38;;
25950;SDS011;13748;52.240;6.002;2023-06-22T09:52:14;9.63;;;7.30;;
25950;SDS011;13748;52.240;6.002;2023-06-22T09:54:42;10.32;;;7.40;;
25950;SDS011;13748;52.240;6.002;2023-06-22T09:57:09;12.23;;;8.52;;
25950;SDS011;13748;52.240;6.002;2023-06-22T09:59:36;8.85;;;7.40;;
25950;SDS011;13748;52.240;6.002;2023-06-22T10:02:03;8.77;;;7.07;;
25950;SDS011;13748;52.240;6.002;2023-06-22T10:04:30;10.75;;;7.78;;
25950;SDS011;13748;52.240;6.002;2023-06-22T10:06:58;10.38;;;8.00;;
25950;SDS011;13748;52.240;6.002;2023-06-22T10:09:25;10.55;;;8.38;;
25950;SDS011;13748;52.240;6.002;2023-06-22T10:11:54;10.05;;;7.85;;
25950;SDS011;13748;52.240;6.002;2023-06-22T10:14:21;15.80;;;9.60;;
25950;SDS011;13748;52.240;6.002;2023-06-22T10:16:48;13.43;;;8.43;;
25950;SDS011;13748;52.240;6.002;2023-06-22T10:19:15;10.27;;;8.23;;
25950;SDS011;13748;52.240;6.002;2023-06-22T10:21:42;10.38;;;8.48;;
25950;SDS011;13748;52.240;6.002;2023-06-22T10:24:09;13.77;;;9.98;;
25950;SDS011;13748;52.240;6.002;2023-06-22T10:26:36;11.05;;;8.27;;
25950;SDS011;13748;52.240;6.002;2023-06-22T10:29:03;11.38;;;8.05;;
25950;SDS011;13748;52.240;6.002;2023-06-22T10:31:42;14.63;;;9.20;;
25950;SDS011;13748;52.240;6.002;2023-06-22T10:34:09;11.10;;;8.18;;
25950;SDS011;13748;52.240;6.002;2023-06-22T10:36:38;11.68;;;9.07;;
25950;SDS011;13748;52.240;6.002;2023-06-22T10:39:06;10.38;;;8.07;;
25950;SDS011;13748;52.240;6.002;2023-06-22T10:41:32;9.40;;;7.50;;
25950;SDS011;13748;52.240;6.002;2023-06-22T10:43:59;13.80;;;9.00;;
25950;SDS011;13748;52.240;6.002;2023-06-22T10:46:28;10.25;;;8.05;;
25950;SDS011;13748;52.240;6.002;2023-06-22T10:48:55;11.88;;;8.10;;
25950;SDS011;13748;52.240;6.002;2023-06-22T10:51:23;13.43;;;9.50;;
25950;SDS011;13748;52.240;6.002;2023-06-22T10:53:50;13.45;;;8.32;;
25950;SDS011;13748;52.240;6.002;2023-06-22T10:56:18;11.68;;;9.35;;
25950;SDS011;13748;52.240;6.002;2023-06-22T10:58:45;12.63;;;9.63;;
25950;SDS011;13748;52.240;6.002;2023-06-22T11:01:13;11.95;;;8.60;;
25950;SDS011;13748;52.240;6.002;2023-06-22T11:04:00;12.43;;;9.63;;
25950;SDS011;13748;52.240;6.002;2023-06-22T11:06:28;12.20;;;8.70;;
25950;SDS011;13748;52.240;6.002;2023-06-22T11:08:55;11.70;;;8.80;;
25950;SDS011;13748;52.240;6.002;2023-06-22T11:11:42;11.60;;;8.50;;
25950;SDS011;13748;52.240;6.002;2023-06-22T11:14:09;13.57;;;9.05;;
25950;SDS011;13748;52.240;6.002;2023-06-22T11:16:36;10.18;;;7.95;;
25950;SDS011;13748;52.240;6.002;2023-06-22T11:19:04;11.90;;;9.20;;
25950;SDS011;13748;52.240;6.002;2023-06-22T11:21:31;12.45;;;8.57;;
25950;SDS011;13748;52.240;6.002;2023-06-22T11:23:59;11.43;;;8.68;;
25950;SDS011;13748;52.240;6.002;2023-06-22T11:26:26;11.68;;;7.80;;
25950;SDS011;13748;52.240;6.002;2023-06-22T11:28:53;11.13;;;8.10;;
25950;SDS011;13748;52.240;6.002;2023-06-22T11:31:21;11.43;;;8.35;;
25950;SDS011;13748;52.240;6.002;2023-06-22T11:33:53;11.10;;;8.60;;
25950;SDS011;13748;52.240;6.002;2023-06-22T11:36:20;12.35;;;8.32;;
25950;SDS011;13748;52.240;6.002;2023-06-22T11:38:47;11.77;;;7.80;;
25950;SDS011;13748;52.240;6.002;2023-06-22T11:41:17;9.68;;;7.80;;
25950;SDS011;13748;52.240;6.002;2023-06-22T11:43:45;11.95;;;8.15;;
25950;SDS011;13748;52.240;6.002;2023-06-22T11:46:12;10.75;;;7.05;;
25950;SDS011;13748;52.240;6.002;2023-06-22T11:48:40;10.85;;;7.55;;
25950;SDS011;13748;52.240;6.002;2023-06-22T11:51:07;11.05;;;7.82;;
25950;SDS011;13748;52.240;6.002;2023-06-22T11:53:34;10.13;;;7.82;;
25950;SDS011;13748;52.240;6.002;2023-06-22T11:56:02;11.80;;;8.13;;
25950;SDS011;13748;52.240;6.002;2023-06-22T11:58:35;10.55;;;7.60;;
25950;SDS011;13748;52.240;6.002;2023-06-22T12:01:03;9.57;;;7.72;;
25950;SDS011;13748;52.240;6.002;2023-06-22T12:03:32;10.15;;;8.27;;
25950;SDS011;13748;52.240;6.002;2023-06-22T12:05:59;13.38;;;8.57;;
25950;SDS011;13748;52.240;6.002;2023-06-22T12:08:27;9.75;;;7.82;;
25950;SDS011;13748;52.240;6.002;2023-06-22T12:10:53;12.18;;;9.07;;
25950;SDS011;13748;52.240;6.002;2023-06-22T12:13:23;13.13;;;9.32;;
25950;SDS011;13748;52.240;6.002;2023-06-22T12:15:50;11.57;;;8.80;;
25950;SDS011;13748;52.240;6.002;2023-06-22T12:18:18;13.20;;;9.38;;
25950;SDS011;13748;52.240;6.002;2023-06-22T12:20:47;11.52;;;8.90;;
25950;SDS011;13748;52.240;6.002;2023-06-22T12:23:15;13.57;;;10.15;;
25950;SDS011;13748;52.240;6.002;2023-06-22T12:25:47;14.63;;;10.43;;
25950;SDS011;13748;52.240;6.002;2023-06-22T12:28:16;14.60;;;10.20;;
25950;SDS011;13748;52.240;6.002;2023-06-22T12:30:43;12.27;;;9.32;;
25950;SDS011;13748;52.240;6.002;2023-06-22T12:33:10;14.52;;;11.05;;
25950;SDS011;13748;52.240;6.002;2023-06-22T12:35:38;12.93;;;10.70;;
25950;SDS011;13748;52.240;6.002;2023-06-22T12:38:05;15.25;;;11.27;;
25950;SDS011;13748;52.240;6.002;2023-06-22T12:40:34;15.88;;;10.77;;
25950;SDS011;13748;52.240;6.002;2023-06-22T12:43:01;14.32;;;10.10;;
25950;SDS011;13748;52.240;6.002;2023-06-22T12:45:28;11.35;;;9.68;;
25950;SDS011;13748;52.240;6.002;2023-06-22T12:47:58;12.35;;;10.70;;
25950;SDS011;13748;52.240;6.002;2023-06-22T12:50:26;17.48;;;12.27;;
25950;SDS011;13748;52.240;6.002;2023-06-22T12:52:54;13.57;;;11.73;;
25950;SDS011;13748;52.240;6.002;2023-06-22T12:55:21;15.05;;;11.48;;
25950;SDS011;13748;52.240;6.002;2023-06-22T12:57:48;13.68;;;10.93;;
25950;SDS011;13748;52.240;6.002;2023-06-22T13:00:15;13.95;;;10.73;;
25950;SDS011;13748;52.240;6.002;2023-06-22T13:02:42;13.77;;;11.07;;
25950;SDS011;13748;52.240;6.002;2023-06-22T13:05:09;15.15;;;12.13;;
25950;SDS011;13748;52.240;6.002;2023-06-22T13:07:36;14.82;;;10.57;;
25950;SDS011;13748;52.240;6.002;2023-06-22T13:10:04;18.67;;;13.10;;
25950;SDS011;13748;52.240;6.002;2023-06-22T13:12:31;16.63;;;13.57;;
25950;SDS011;13748;52.240;6.002;2023-06-22T13:14:58;20.65;;;13.98;;
25950;SDS011;13748;52.240;6.002;2023-06-22T13:17:25;20.77;;;13.98;;
25950;SDS011;13748;52.240;6.002;2023-06-22T13:19:52;19.63;;;13.52;;
25950;SDS011;13748;52.240;6.002;2023-06-22T13:22:32;17.92;;;12.25;;
25950;SDS011;13748;52.240;6.002;2023-06-22T13:25:06;15.98;;;12.98;;
25950;SDS011;13748;52.240;6.002;2023-06-22T13:27:34;16.85;;;13.38;;
25950;SDS011;13748;52.240;6.002;2023-06-22T13:30:00;20.30;;;14.52;;
25950;SDS011;13748;52.240;6.002;2023-06-22T13:32:29;25.20;;;15.40;;
25950;SDS011;13748;52.240;6.002;2023-06-22T13:34:55;20.55;;;15.95;;
25950;SDS011;13748;52.240;6.002;2023-06-22T13:37:22;22.50;;;16.67;;
25950;SDS011;13748;52.240;6.002;2023-06-22T13:39:49;25.80;;;18.33;;
25950;SDS011;13748;52.240;6.002;2023-06-22T13:42:16;24.05;;;17.70;;
25950;SDS011;13748;52.240;6.002;2023-06-22T13:44:43;24.15;;;15.80;;
25950;SDS011;13748;52.240;6.002;2023-06-22T13:47:10;22.30;;;15.73;;
25950;SDS011;13748;52.240;6.002;2023-06-22T13:49:37;21.52;;;16.33;;
25950;SDS011;13748;52.240;6.002;2023-06-22T13:52:04;20.70;;;16.58;;
25950;SDS011;13748;52.240;6.002;2023-06-22T13:54:33;25.67;;;17.77;;
25950;SDS011;13748;52.240;6.002;2023-06-22T13:57:01;23.33;;;18.13;;
25950;SDS011;13748;52.240;6.002;2023-06-22T13:59:28;27.48;;;17.67;;
25950;SDS011;13748;52.240;6.002;2023-06-22T14:01:55;26.58;;;18.13;;
25950;SDS011;13748;52.240;6.002;2023-06-22T14:04:25;23.58;;;17.58;;
25950;SDS011;13748;52.240;6.002;2023-06-22T14:06:52;25.42;;;17.02;;
25950;SDS011;13748;52.240;6.002;2023-06-22T14:09:22;24.67;;;17.60;;
25950;SDS011;13748;52.240;6.002;2023-06-22T14:11:49;27.40;;;17.80;;
25950;SDS011;13748;52.240;6.002;2023-06-22T14:14:16;24.38;;;18.35;;
25950;SDS011;13748;52.240;6.002;2023-06-22T14:16:43;27.80;;;20.70;;
25950;SDS011;13748;52.240;6.002;2023-06-22T14:19:10;28.23;;;20.02;;
25950;SDS011;13748;52.240;6.002;2023-06-22T14:21:37;26.15;;;18.63;;
25950;SDS011;13748;52.240;6.002;2023-06-22T14:24:04;24.45;;;18.75;;
25950;SDS011;13748;52.240;6.002;2023-06-22T14:26:31;27.38;;;19.17;;
25950;SDS011;13748;52.240;6.002;2023-06-22T14:28:58;25.48;;;18.02;;
25950;SDS011;13748;52.240;6.002;2023-06-22T14:31:25;25.45;;;18.38;;
25950;SDS011;13748;52.240;6.002;2023-06-22T14:33:51;24.05;;;18.23;;
25950;SDS011;13748;52.240;6.002;2023-06-22T14:36:18;25.40;;;17.58;;
25950;SDS011;13748;52.240;6.002;2023-06-22T14:38:45;26.33;;;18.95;;
25950;SDS011;13748;52.240;6.002;2023-06-22T14:41:13;25.67;;;19.23;;
25950;SDS011;13748;52.240;6.002;2023-06-22T14:43:44;26.55;;;20.02;;
25950;SDS011;13748;52.240;6.002;2023-06-22T14:46:19;24.10;;;18.83;;
25950;SDS011;13748;52.240;6.002;2023-06-22T14:48:46;23.42;;;17.88;;
25950;SDS011;13748;52.240;6.002;2023-06-22T14:51:13;21.77;;;16.90;;
25950;SDS011;13748;52.240;6.002;2023-06-22T14:53:43;21.75;;;16.15;;
25950;SDS011;13748;52.240;6.002;2023-06-22T14:56:12;25.08;;;18.10;;
25950;SDS011;13748;52.240;6.002;2023-06-22T14:58:41;19.10;;;14.63;;
25950;SDS011;13748;52.240;6.002;2023-06-22T15:01:12;21.10;;;15.50;;
25950;SDS011;13748;52.240;6.002;2023-06-22T15:03:39;23.55;;;17.10;;
25950;SDS011;13748;52.240;6.002;2023-06-22T15:06:07;24.15;;;17.48;;
25950;SDS011;13748;52.240;6.002;2023-06-22T15:08:38;21.83;;;14.70;;
25950;SDS011;13748;52.240;6.002;2023-06-22T15:11:06;22.98;;;16.65;;
25950;SDS011;13748;52.240;6.002;2023-06-22T15:13:33;21.45;;;16.30;;
25950;SDS011;13748;52.240;6.002;2023-06-22T15:16:01;21.00;;;15.43;;
25950;SDS011;13748;52.240;6.002;2023-06-22T15:18:31;24.27;;;18.13;;
25950;SDS011;13748;52.240;6.002;2023-06-22T15:21:02;23.73;;;17.08;;
25950;SDS011;13748;52.240;6.002;2023-06-22T15:23:30;22.52;;;16.85;;
25950;SDS011;13748;52.240;6.002;2023-06-22T15:25:58;24.40;;;17.63;;
25950;SDS011;13748;52.240;6.002;2023-06-22T15:28:28;23.63;;;16.48;;
25950;SDS011;13748;52.240;6.002;2023-06-22T15:30:55;26.45;;;18.20;;
25950;SDS011;13748;52.240;6.002;2023-06-22T15:33:22;22.15;;;16.52;;
25950;SDS011;13748;52.240;6.002;2023-06-22T15:35:50;21.27;;;15.13;;
25950;SDS011;13748;52.240;6.002;2023-06-22T15:38:19;24.05;;;17.40;;
25950;SDS011;13748;52.240;6.002;2023-06-22T15:40:46;24.05;;;17.30;;
25950;SDS011;13748;52.240;6.002;2023-06-22T15:43:12;24.50;;;18.08;;
25950;SDS011;13748;52.240;6.002;2023-06-22T15:45:40;24.63;;;18.85;;
25950;SDS011;13748;52.240;6.002;2023-06-22T15:48:07;27.33;;;18.58;;
25950;SDS011;13748;52.240;6.002;2023-06-22T15:50:34;26.00;;;19.35;;
25950;SDS011;13748;52.240;6.002;2023-06-22T15:53:00;26.63;;;19.02;;
25950;SDS011;13748;52.240;6.002;2023-06-22T15:55:27;25.63;;;18.88;;
25950;SDS011;13748;52.240;6.002;2023-06-22T15:57:57;28.90;;;20.05;;
25950;SDS011;13748;52.240;6.002;2023-06-22T16:00:26;29.42;;;19.40;;
25950;SDS011;13748;52.240;6.002;2023-06-22T16:02:53;28.40;;;19.77;;
25950;SDS011;13748;52.240;6.002;2023-06-22T16:05:23;25.98;;;18.48;;
25950;SDS011;13748;52.240;6.002;2023-06-22T16:07:50;26.60;;;18.88;;
25950;SDS011;13748;52.240;6.002;2023-06-22T16:10:19;26.38;;;19.90;;
25950;SDS011;13748;52.240;6.002;2023-06-22T16:12:46;26.05;;;18.60;;
25950;SDS011;13748;52.240;6.002;2023-06-22T16:15:18;28.42;;;19.50;;
25950;SDS011;13748;52.240;6.002;2023-06-22T16:17:44;29.50;;;19.33;;
25950;SDS011;13748;52.240;6.002;2023-06-22T16:20:11;24.95;;;19.35;;
25950;SDS011;13748;52.240;6.002;2023-06-22T16:22:38;26.23;;;19.00;;
25950;SDS011;13748;52.240;6.002;2023-06-22T16:25:05;27.80;;;19.23;;
25950;SDS011;13748;52.240;6.002;2023-06-22T16:27:33;29.50;;;20.10;;
25950;SDS011;13748;52.240;6.002;2023-06-22T16:29:59;26.25;;;18.77;;
25950;SDS011;13748;52.240;6.002;2023-06-22T16:32:26;28.70;;;20.05;;